sensor_id;sensor_type;location;lat;lon;timestamp;pressure;altitude;pressure_sealevel;temperature;humidity
71105;BME280;58760;48.716;8.962;2022-08-19T00:01:44;96079.47;;;20.16;70.15
71105;BME280;58760;48.716;8.962;2022-08-19T00:04:12;96084.63;;;20.17;69.57
71105;BME280;58760;48.716;8.962;2022-08-19T00:06:39;96084.09;;;20.15;69.48
71105;BME280;58760;48.716;8.962;2022-08-19T00:09:08;96075.66;;;20.12;70.11
71105;BME280;58760;48.716;8.962;2022-08-19T00:11:34;96075.66;;;20.12;70.05
71105;BME280;58760;48.716;8.962;2022-08-19T00:14:01;96079.97;;;20.13;69.97
71105;BME280;58760;48.716;8.962;2022-08-19T00:16:26;96081.53;;;20.09;69.83
71105;BME280;58760;48.716;8.962;2022-08-19T00:18:55;96089.84;;;20.07;69.75
71105;BME280;58760;48.716;8.962;2022-08-19T00:21:25;96084.72;;;20.06;70.07
71105;BME280;58760;48.716;8.962;2022-08-19T00:23:53;96093.59;;;20.06;69.96
71105;BME280;58760;48.716;8.962;2022-08-19T00:26:18;96082.97;;;20.00;69.86
71105;BME280;58760;48.716;8.962;2022-08-19T00:28:44;96070.91;;;20.02;69.77
71105;BME280;58760;48.716;8.962;2022-08-19T00:31:10;96080.38;;;20.05;69.80
71105;BME280;58760;48.716;8.962;2022-08-19T00:33:35;96076.31;;;20.02;70.03
71105;BME280;58760;48.716;8.962;2022-08-19T00:36:04;96069.50;;;20.00;70.15
71105;BME280;58760;48.716;8.962;2022-08-19T00:38:31;96064.22;;;20.05;70.17
71105;BME280;58760;48.716;8.962;2022-08-19T00:40:57;96046.91;;;20.01;70.24
71105;BME280;58760;48.716;8.962;2022-08-19T00:43:25;96039.31;;;19.98;70.55
71105;BME280;58760;48.716;8.962;2022-08-19T00:45:51;96050.41;;;20.01;70.06
71105;BME280;58760;48.716;8.962;2022-08-19T00:48:17;96054.16;;;20.00;69.85
71105;BME280;58760;48.716;8.962;2022-08-19T00:50:44;96058.16;;;19.98;70.19
71105;BME280;58760;48.716;8.962;2022-08-19T00:53:12;96057.59;;;19.96;70.58
71105;BME280;58760;48.716;8.962;2022-08-19T00:55:40;96066.19;;;19.93;70.16
71105;BME280;58760;48.716;8.962;2022-08-19T00:58:09;96067.31;;;19.97;70.42
71105;BME280;58760;48.716;8.962;2022-08-19T01:00:36;96077.44;;;19.90;70.49
71105;BME280;58760;48.716;8.962;2022-08-19T01:03:07;96069.44;;;19.95;70.28
71105;BME280;58760;48.716;8.962;2022-08-19T01:05:34;96068.38;;;19.96;70.02
71105;BME280;58760;48.716;8.962;2022-08-19T01:08:02;96066.50;;;19.96;70.15
71105;BME280;58760;48.716;8.962;2022-08-19T01:10:31;96072.13;;;19.95;70.56
71105;BME280;58760;48.716;8.962;2022-08-19T01:12:58;96066.66;;;19.90;70.56
71105;BME280;58760;48.716;8.962;2022-08-19T01:15:31;96066.19;;;19.93;70.74
71105;BME280;58760;48.716;8.962;2022-08-19T01:18:00;96064.53;;;19.92;70.53
71105;BME280;58760;48.716;8.962;2022-08-19T01:20:26;96061.00;;;19.91;70.83
71105;BME280;58760;48.716;8.962;2022-08-19T01:22:55;96063.38;;;19.88;71.12
71105;BME280;58760;48.716;8.962;2022-08-19T01:25:26;96058.00;;;19.88;70.81
71105;BME280;58760;48.716;8.962;2022-08-19T01:27:53;96061.72;;;19.87;70.52
71105;BME280;58760;48.716;8.962;2022-08-19T01:30:25;96058.47;;;19.84;70.94
71105;BME280;58760;48.716;8.962;2022-08-19T01:32:52;96060.13;;;19.86;70.59
71105;BME280;58760;48.716;8.962;2022-08-19T01:35:18;96056.03;;;19.83;70.78
71105;BME280;58760;48.716;8.962;2022-08-19T01:40:11;96050.47;;;19.73;71.58
71105;BME280;58760;48.716;8.962;2022-08-19T01:42:36;96056.53;;;19.80;71.16
71105;BME280;58760;48.716;8.962;2022-08-19T01:45:03;96054.06;;;19.78;71.27
71105;BME280;58760;48.716;8.962;2022-08-19T01:47:29;96052.75;;;19.81;71.03
71105;BME280;58760;48.716;8.962;2022-08-19T01:49:54;96047.63;;;19.79;71.40
71105;BME280;58760;48.716;8.962;2022-08-19T01:52:20;96053.97;;;19.73;71.71
71105;BME280;58760;48.716;8.962;2022-08-19T01:54:45;96052.81;;;19.69;72.57
71105;BME280;58760;48.716;8.962;2022-08-19T01:57:12;96046.50;;;19.64;72.95
71105;BME280;58760;48.716;8.962;2022-08-19T01:59:40;96048.41;;;19.63;73.28
71105;BME280;58760;48.716;8.962;2022-08-19T02:02:06;96055.00;;;19.56;73.97
71105;BME280;58760;48.716;8.962;2022-08-19T02:04:34;96054.66;;;19.52;74.23
71105;BME280;58760;48.716;8.962;2022-08-19T02:07:00;96058.38;;;19.51;73.98
71105;BME280;58760;48.716;8.962;2022-08-19T02:09:25;96062.63;;;19.47;73.93
71105;BME280;58760;48.716;8.962;2022-08-19T02:11:51;96059.13;;;19.47;74.66
71105;BME280;58760;48.716;8.962;2022-08-19T02:14:16;96067.44;;;19.45;74.48
71105;BME280;58760;48.716;8.962;2022-08-19T02:16:42;96060.09;;;19.41;74.70
71105;BME280;58760;48.716;8.962;2022-08-19T02:19:08;96055.72;;;19.40;74.49
71105;BME280;58760;48.716;8.962;2022-08-19T02:21:34;96060.28;;;19.39;74.55
71105;BME280;58760;48.716;8.962;2022-08-19T02:23:59;96047.31;;;19.36;74.19
71105;BME280;58760;48.716;8.962;2022-08-19T02:26:25;96050.00;;;19.36;74.46
71105;BME280;58760;48.716;8.962;2022-08-19T02:28:51;96044.63;;;19.36;74.60
71105;BME280;58760;48.716;8.962;2022-08-19T02:31:19;96045.56;;;19.30;74.55
71105;BME280;58760;48.716;8.962;2022-08-19T02:33:46;96050.22;;;19.34;74.58
71105;BME280;58760;48.716;8.962;2022-08-19T02:36:14;96047.88;;;19.38;74.32
71105;BME280;58760;48.716;8.962;2022-08-19T02:38:40;96040.44;;;19.40;74.09
71105;BME280;58760;48.716;8.962;2022-08-19T02:41:10;96039.34;;;19.41;74.23
71105;BME280;58760;48.716;8.962;2022-08-19T02:43:36;96039.81;;;19.38;74.05
71105;BME280;58760;48.716;8.962;2022-08-19T02:46:11;96035.03;;;19.40;73.79
71105;BME280;58760;48.716;8.962;2022-08-19T02:48:37;96033.84;;;19.36;74.34
71105;BME280;58760;48.716;8.962;2022-08-19T02:51:02;96033.38;;;19.39;74.58
71105;BME280;58760;48.716;8.962;2022-08-19T02:53:28;96034.66;;;19.37;74.33
71105;BME280;58760;48.716;8.962;2022-08-19T02:55:54;96036.78;;;19.34;74.12
71105;BME280;58760;48.716;8.962;2022-08-19T02:58:20;96038.91;;;19.44;74.27
71105;BME280;58760;48.716;8.962;2022-08-19T03:00:49;96052.47;;;19.38;74.14
71105;BME280;58760;48.716;8.962;2022-08-19T03:03:16;96040.69;;;19.27;74.91
71105;BME280;58760;48.716;8.962;2022-08-19T03:05:42;96048.28;;;19.30;74.79
71105;BME280;58760;48.716;8.962;2022-08-19T03:08:09;96052.47;;;19.26;74.93
71105;BME280;58760;48.716;8.962;2022-08-19T03:10:45;96046.06;;;19.27;74.57
71105;BME280;58760;48.716;8.962;2022-08-19T03:13:16;96046.88;;;19.27;74.72
71105;BME280;58760;48.716;8.962;2022-08-19T03:15:46;96051.66;;;19.25;74.46
71105;BME280;58760;48.716;8.962;2022-08-19T03:18:14;96046.19;;;19.20;75.29
71105;BME280;58760;48.716;8.962;2022-08-19T03:20:48;96046.41;;;19.19;75.34
71105;BME280;58760;48.716;8.962;2022-08-19T03:23:14;96056.59;;;19.17;75.25
71105;BME280;58760;48.716;8.962;2022-08-19T03:25:44;96061.16;;;19.16;75.01
71105;BME280;58760;48.716;8.962;2022-08-19T03:28:14;96051.72;;;19.14;75.40
71105;BME280;58760;48.716;8.962;2022-08-19T03:30:41;96052.66;;;19.08;75.67
71105;BME280;58760;48.716;8.962;2022-08-19T03:33:08;96050.53;;;19.10;75.46
71105;BME280;58760;48.716;8.962;2022-08-19T03:35:34;96045.28;;;19.03;76.00
71105;BME280;58760;48.716;8.962;2022-08-19T03:38:05;96046.22;;;19.09;75.80
71105;BME280;58760;48.716;8.962;2022-08-19T03:40:32;96048.69;;;19.10;75.76
71105;BME280;58760;48.716;8.962;2022-08-19T03:43:00;96037.34;;;19.08;75.63
71105;BME280;58760;48.716;8.962;2022-08-19T03:45:25;96047.41;;;19.01;75.88
71105;BME280;58760;48.716;8.962;2022-08-19T03:47:51;96047.63;;;19.00;76.35
71105;BME280;58760;48.716;8.962;2022-08-19T03:50:16;96039.09;;;19.03;75.88
71105;BME280;58760;48.716;8.962;2022-08-19T03:52:48;96029.53;;;18.95;76.62
71105;BME280;58760;48.716;8.962;2022-08-19T03:55:13;96034.66;;;18.97;76.34
71105;BME280;58760;48.716;8.962;2022-08-19T03:57:39;96050.81;;;18.97;76.29
71105;BME280;58760;48.716;8.962;2022-08-19T04:00:04;96057.47;;;18.94;76.89
71105;BME280;58760;48.716;8.962;2022-08-19T04:02:32;96068.94;;;18.90;76.84
71105;BME280;58760;48.716;8.962;2022-08-19T04:04:57;96070.59;;;18.79;77.44
71105;BME280;58760;48.716;8.962;2022-08-19T04:07:23;96078.75;;;18.84;77.23
71105;BME280;58760;48.716;8.962;2022-08-19T04:09:48;96078.53;;;18.86;77.38
71105;BME280;58760;48.716;8.962;2022-08-19T04:12:14;96079.34;;;18.86;77.23
71105;BME280;58760;48.716;8.962;2022-08-19T04:14:40;96080.75;;;18.89;77.02
71105;BME280;58760;48.716;8.962;2022-08-19T04:17:05;96072.69;;;18.89;77.37
71105;BME280;58760;48.716;8.962;2022-08-19T04:19:32;96062.97;;;18.88;77.11
71105;BME280;58760;48.716;8.962;2022-08-19T04:21:57;96063.19;;;18.86;77.76
71105;BME280;58760;48.716;8.962;2022-08-19T04:24:23;96071.28;;;18.86;77.45
71105;BME280;58760;48.716;8.962;2022-08-19T04:26:49;96063.81;;;18.88;77.43
71105;BME280;58760;48.716;8.962;2022-08-19T04:29:23;96061.22;;;18.93;77.13
71105;BME280;58760;48.716;8.962;2022-08-19T04:31:52;96061.22;;;18.93;77.65
71105;BME280;58760;48.716;8.962;2022-08-19T04:34:20;96066.59;;;18.93;77.35
71105;BME280;58760;48.716;8.962;2022-08-19T04:36:49;96062.72;;;18.89;77.40
71105;BME280;58760;48.716;8.962;2022-08-19T04:39:22;96063.47;;;18.85;78.10
71105;BME280;58760;48.716;8.962;2022-08-19T04:41:49;96068.38;;;18.88;77.70
71105;BME280;58760;48.716;8.962;2022-08-19T04:44:34;96068.94;;;18.90;77.75
71105;BME280;58760;48.716;8.962;2022-08-19T04:47:00;96071.53;;;18.85;78.38
71105;BME280;58760;48.716;8.962;2022-08-19T04:49:26;96077.00;;;18.90;77.99
71105;BME280;58760;48.716;8.962;2022-08-19T04:51:53;96064.03;;;18.87;77.84
71105;BME280;58760;48.716;8.962;2022-08-19T04:54:20;96071.06;;;18.88;77.90
71105;BME280;58760;48.716;8.962;2022-08-19T04:56:48;96072.44;;;18.90;77.93
71105;BME280;58760;48.716;8.962;2022-08-19T04:59:15;96070.78;;;18.89;78.00
71105;BME280;58760;48.716;8.962;2022-08-19T05:01:42;96081.22;;;18.86;78.13
71105;BME280;58760;48.716;8.962;2022-08-19T05:04:08;96077.59;;;18.92;78.38
71105;BME280;58760;48.716;8.962;2022-08-19T05:06:34;96074.56;;;18.88;78.54
71105;BME280;58760;48.716;8.962;2022-08-19T05:09:02;96082.38;;;18.90;78.20
71105;BME280;58760;48.716;8.962;2022-08-19T05:11:31;96091.75;;;18.87;78.47
71105;BME280;58760;48.716;8.962;2022-08-19T05:13:57;96090.44;;;18.90;78.32
71105;BME280;58760;48.716;8.962;2022-08-19T05:16:24;96096.91;;;18.89;78.18
71105;BME280;58760;48.716;8.962;2022-08-19T05:18:50;96095.94;;;18.95;78.54
71105;BME280;58760;48.716;8.962;2022-08-19T05:21:35;96106.72;;;18.95;78.20
71105;BME280;58760;48.716;8.962;2022-08-19T05:24:20;96105.41;;;18.97;77.93
71105;BME280;58760;48.716;8.962;2022-08-19T05:26:48;96125.75;;;18.93;78.55
71105;BME280;58760;48.716;8.962;2022-08-19T05:29:16;96130.66;;;18.96;77.97
71105;BME280;58760;48.716;8.962;2022-08-19T05:31:42;96140.16;;;18.99;78.17
71105;BME280;58760;48.716;8.962;2022-08-19T05:34:08;96151.13;;;18.97;78.00
71105;BME280;58760;48.716;8.962;2022-08-19T05:36:37;96156.50;;;18.97;78.18
71105;BME280;58760;48.716;8.962;2022-08-19T05:39:09;96169.47;;;19.00;77.77
71105;BME280;58760;48.716;8.962;2022-08-19T05:41:36;96172.44;;;18.99;78.11
71105;BME280;58760;48.716;8.962;2022-08-19T05:44:05;96168.31;;;19.08;77.51
71105;BME280;58760;48.716;8.962;2022-08-19T05:46:34;96160.72;;;19.05;77.51
71105;BME280;58760;48.716;8.962;2022-08-19T05:49:01;96157.44;;;19.03;77.80
71105;BME280;58760;48.716;8.962;2022-08-19T05:51:26;96164.47;;;19.04;77.92
71105;BME280;58760;48.716;8.962;2022-08-19T05:53:51;96158.81;;;19.05;77.75
71105;BME280;58760;48.716;8.962;2022-08-19T05:56:17;96164.00;;;19.07;77.27
71105;BME280;58760;48.716;8.962;2022-08-19T05:58:44;96162.47;;;18.99;77.78
71105;BME280;58760;48.716;8.962;2022-08-19T06:01:15;96156.97;;;19.06;77.88
71105;BME280;58760;48.716;8.962;2022-08-19T06:03:41;96155.56;;;19.15;77.47
71105;BME280;58760;48.716;8.962;2022-08-19T06:06:08;96151.59;;;19.06;77.53
71105;BME280;58760;48.716;8.962;2022-08-19T06:08:35;96162.56;;;19.16;77.66
71105;BME280;58760;48.716;8.962;2022-08-19T06:11:21;96155.78;;;19.13;77.15
71105;BME280;58760;48.716;8.962;2022-08-19T06:13:49;96162.91;;;19.19;76.66
71105;BME280;58760;48.716;8.962;2022-08-19T06:16:18;96151.34;;;19.19;76.71
71105;BME280;58760;48.716;8.962;2022-08-19T06:18:46;96156.97;;;19.17;76.48
71105;BME280;58760;48.716;8.962;2022-08-19T06:21:11;96166.66;;;19.18;76.11
71105;BME280;58760;48.716;8.962;2022-08-19T06:23:37;96162.00;;;19.14;76.71
71105;BME280;58760;48.716;8.962;2022-08-19T06:26:02;96148.78;;;19.12;76.48
71105;BME280;58760;48.716;8.962;2022-08-19T06:28:28;96154.50;;;19.16;76.26
71105;BME280;58760;48.716;8.962;2022-08-19T06:30:53;96142.22;;;19.20;76.02
71105;BME280;58760;48.716;8.962;2022-08-19T06:33:18;96153.56;;;19.22;75.69
71105;BME280;58760;48.716;8.962;2022-08-19T06:35:44;96154.16;;;19.24;76.34
71105;BME280;58760;48.716;8.962;2022-08-19T06:38:09;96152.84;;;19.26;75.85
71105;BME280;58760;48.716;8.962;2022-08-19T06:40:35;96147.69;;;19.25;75.75
71105;BME280;58760;48.716;8.962;2022-08-19T06:43:02;96149.81;;;19.23;75.35
71105;BME280;58760;48.716;8.962;2022-08-19T06:45:28;96152.63;;;19.28;75.16
71105;BME280;58760;48.716;8.962;2022-08-19T06:47:53;96162.91;;;19.31;75.41
71105;BME280;58760;48.716;8.962;2022-08-19T06:50:22;96157.41;;;19.26;75.50
71105;BME280;58760;48.716;8.962;2022-08-19T06:52:47;96150.72;;;19.28;75.42
71105;BME280;58760;48.716;8.962;2022-08-19T06:55:14;96152.25;;;19.36;75.00
71105;BME280;58760;48.716;8.962;2022-08-19T06:57:39;96152.25;;;19.36;75.16
71105;BME280;58760;48.716;8.962;2022-08-19T07:00:05;96152.59;;;19.40;75.42
71105;BME280;58760;48.716;8.962;2022-08-19T07:02:33;96149.91;;;19.51;75.03
71105;BME280;58760;48.716;8.962;2022-08-19T07:05:02;96149.53;;;19.59;74.44
71105;BME280;58760;48.716;8.962;2022-08-19T07:07:28;96158.53;;;19.65;74.25
71105;BME280;58760;48.716;8.962;2022-08-19T07:09:53;96162.88;;;19.66;74.48
71105;BME280;58760;48.716;8.962;2022-08-19T07:12:19;96165.16;;;19.74;74.35
71105;BME280;58760;48.716;8.962;2022-08-19T07:14:44;96167.16;;;19.78;73.89
71105;BME280;58760;48.716;8.962;2022-08-19T07:17:12;96156.72;;;19.82;73.31
71105;BME280;58760;48.716;8.962;2022-08-19T07:19:38;96170.63;;;19.91;73.00
71105;BME280;58760;48.716;8.962;2022-08-19T07:22:06;96167.22;;;19.95;72.72
71105;BME280;58760;48.716;8.962;2022-08-19T07:24:32;96171.44;;;19.91;73.04
71105;BME280;58760;48.716;8.962;2022-08-19T07:27:00;96171.94;;;19.88;73.48
71105;BME280;58760;48.716;8.962;2022-08-19T07:29:32;96180.00;;;19.88;73.42
71105;BME280;58760;48.716;8.962;2022-08-19T07:31:59;96165.50;;;19.89;73.03
71105;BME280;58760;48.716;8.962;2022-08-19T07:34:26;96169.31;;;19.93;72.80
71105;BME280;58760;48.716;8.962;2022-08-19T07:36:53;96170.06;;;19.89;73.13
71105;BME280;58760;48.716;8.962;2022-08-19T07:39:27;96180.34;;;19.92;72.74
71105;BME280;58760;48.716;8.962;2022-08-19T07:41:54;96180.81;;;19.89;73.45
71105;BME280;58760;48.716;8.962;2022-08-19T07:44:20;96184.69;;;19.93;72.81
71105;BME280;58760;48.716;8.962;2022-08-19T07:46:48;96178.13;;;19.89;73.34
71105;BME280;58760;48.716;8.962;2022-08-19T07:49:14;96180.56;;;19.90;73.29
71105;BME280;58760;48.716;8.962;2022-08-19T07:51:52;96172.28;;;19.92;73.25
71105;BME280;58760;48.716;8.962;2022-08-19T07:54:19;96171.06;;;19.99;73.06
71105;BME280;58760;48.716;8.962;2022-08-19T07:56:45;96184.06;;;20.02;72.69
71105;BME280;58760;48.716;8.962;2022-08-19T07:59:11;96188.16;;;20.05;73.08
71105;BME280;58760;48.716;8.962;2022-08-19T08:01:37;96176.41;;;20.11;72.91
71105;BME280;58760;48.716;8.962;2022-08-19T08:04:05;96171.84;;;20.11;73.00
71105;BME280;58760;48.716;8.962;2022-08-19T08:06:49;96168.25;;;20.06;72.59
71105;BME280;58760;48.716;8.962;2022-08-19T08:09:37;96166.19;;;20.13;72.37
71105;BME280;58760;48.716;8.962;2022-08-19T08:12:39;96173.78;;;20.16;72.48
71105;BME280;58760;48.716;8.962;2022-08-19T08:15:14;96177.63;;;20.20;72.13
71105;BME280;58760;48.716;8.962;2022-08-19T08:17:44;96181.31;;;20.14;72.30
71105;BME280;58760;48.716;8.962;2022-08-19T08:20:11;96188.81;;;20.12;72.35
71105;BME280;58760;48.716;8.962;2022-08-19T08:22:36;96187.81;;;20.01;72.77
71105;BME280;58760;48.716;8.962;2022-08-19T08:25:23;96183.44;;;20.12;72.54
71105;BME280;58760;48.716;8.962;2022-08-19T08:27:49;96179.19;;;20.16;72.51
71105;BME280;58760;48.716;8.962;2022-08-19T08:30:24;96187.13;;;20.22;72.29
71105;BME280;58760;48.716;8.962;2022-08-19T08:32:50;96189.81;;;20.22;72.33
71105;BME280;58760;48.716;8.962;2022-08-19T08:35:19;96184.13;;;20.19;72.36
71105;BME280;58760;48.716;8.962;2022-08-19T08:37:46;96191.72;;;20.22;72.37
71105;BME280;58760;48.716;8.962;2022-08-19T08:42:57;96196.66;;;20.13;72.80
71105;BME280;58760;48.716;8.962;2022-08-19T08:45:28;96199.13;;;20.15;72.78
71105;BME280;58760;48.716;8.962;2022-08-19T08:47:56;96195.25;;;20.11;72.73
71105;BME280;58760;48.716;8.962;2022-08-19T08:50:30;96195.81;;;20.13;73.18
71105;BME280;58760;48.716;8.962;2022-08-19T08:53:01;96199.13;;;20.15;72.91
71105;BME280;58760;48.716;8.962;2022-08-19T08:55:29;96188.09;;;20.16;72.50
71105;BME280;58760;48.716;8.962;2022-08-19T08:58:01;96191.00;;;20.26;71.87
71105;BME280;58760;48.716;8.962;2022-08-19T09:00:31;96207.16;;;20.26;71.85
71105;BME280;58760;48.716;8.962;2022-08-19T09:02:58;96196.03;;;20.23;71.94
71105;BME280;58760;48.716;8.962;2022-08-19T09:05:35;96193.53;;;20.33;71.54
71105;BME280;58760;48.716;8.962;2022-08-19T09:08:07;96188.34;;;20.43;71.24
71105;BME280;58760;48.716;8.962;2022-08-19T09:15:43;96206.75;;;20.79;69.98
71105;BME280;58760;48.716;8.962;2022-08-19T09:18:10;96205.72;;;20.80;70.35
71105;BME280;58760;48.716;8.962;2022-08-19T09:20:36;96208.97;;;20.82;69.70
71105;BME280;58760;48.716;8.962;2022-08-19T09:23:01;96197.28;;;20.94;69.50
71105;BME280;58760;48.716;8.962;2022-08-19T09:25:27;96201.59;;;20.95;69.56
71105;BME280;58760;48.716;8.962;2022-08-19T09:27:53;96204.47;;;21.05;69.70
71105;BME280;58760;48.716;8.962;2022-08-19T09:30:25;96205.16;;;21.12;69.49
71105;BME280;58760;48.716;8.962;2022-08-19T09:32:51;96207.75;;;21.07;69.42
71105;BME280;58760;48.716;8.962;2022-08-19T09:35:22;96207.91;;;21.17;68.89
71105;BME280;58760;48.716;8.962;2022-08-19T09:37:49;96206.78;;;21.13;69.32
71105;BME280;58760;48.716;8.962;2022-08-19T09:40:15;96206.31;;;21.16;69.03
71105;BME280;58760;48.716;8.962;2022-08-19T09:42:44;96202.44;;;21.12;68.81
71105;BME280;58760;48.716;8.962;2022-08-19T09:45:12;96214.22;;;21.06;69.02
71105;BME280;58760;48.716;8.962;2022-08-19T09:47:38;96210.13;;;21.03;69.21
71105;BME280;58760;48.716;8.962;2022-08-19T09:50:06;96219.59;;;21.06;68.79
71105;BME280;58760;48.716;8.962;2022-08-19T09:52:32;96220.31;;;21.01;69.16
71105;BME280;58760;48.716;8.962;2022-08-19T09:54:57;96217.97;;;21.05;69.38
71105;BME280;58760;48.716;8.962;2022-08-19T09:57:23;96218.28;;;21.08;68.86
71105;BME280;58760;48.716;8.962;2022-08-19T09:59:48;96226.75;;;21.12;68.83
71105;BME280;58760;48.716;8.962;2022-08-19T10:02:13;96226.75;;;21.12;68.11
71105;BME280;58760;48.716;8.962;2022-08-19T10:04:39;96223.22;;;21.11;68.62
71105;BME280;58760;48.716;8.962;2022-08-19T10:07:23;96223.47;;;21.10;68.72
71105;BME280;58760;48.716;8.962;2022-08-19T10:09:49;96217.09;;;21.16;68.54
71105;BME280;58760;48.716;8.962;2022-08-19T10:12:15;96223.22;;;21.11;67.70
71105;BME280;58760;48.716;8.962;2022-08-19T10:14:40;96213.81;;;21.14;67.87
71105;BME280;58760;48.716;8.962;2022-08-19T10:17:05;96215.53;;;21.20;67.99
71105;BME280;58760;48.716;8.962;2022-08-19T10:19:31;96221.88;;;21.30;67.72
71105;BME280;58760;48.716;8.962;2022-08-19T10:22:07;96225.78;;;21.39;67.25
71105;BME280;58760;48.716;8.962;2022-08-19T10:24:33;96224.00;;;21.45;66.90
71105;BME280;58760;48.716;8.962;2022-08-19T10:27:01;96228.41;;;21.51;66.68
71105;BME280;58760;48.716;8.962;2022-08-19T10:29:29;96225.22;;;21.54;65.33
71105;BME280;58760;48.716;8.962;2022-08-19T10:31:55;96233.25;;;21.49;65.56
71105;BME280;58760;48.716;8.962;2022-08-19T10:34:21;96225.22;;;21.54;64.75
71105;BME280;58760;48.716;8.962;2022-08-19T10:36:47;96234.03;;;21.50;64.79
71105;BME280;58760;48.716;8.962;2022-08-19T10:39:13;96213.25;;;21.50;64.15
71105;BME280;58760;48.716;8.962;2022-08-19T10:41:39;96212.25;;;21.56;64.37
71105;BME280;58760;48.716;8.962;2022-08-19T10:44:07;96212.91;;;21.63;63.57
71105;BME280;58760;48.716;8.962;2022-08-19T10:46:36;96202.75;;;21.70;63.27
71105;BME280;58760;48.716;8.962;2022-08-19T10:49:04;96203.38;;;21.77;63.46
71105;BME280;58760;48.716;8.962;2022-08-19T10:51:31;96209.84;;;21.76;63.12
71105;BME280;58760;48.716;8.962;2022-08-19T10:54:16;96201.38;;;21.89;63.17
71105;BME280;58760;48.716;8.962;2022-08-19T10:56:42;96203.72;;;22.03;62.69
71105;BME280;58760;48.716;8.962;2022-08-19T10:59:26;96197.69;;;22.17;61.95
71105;BME280;58760;48.716;8.962;2022-08-19T11:02:00;96199.66;;;22.27;62.04
71105;BME280;58760;48.716;8.962;2022-08-19T11:04:26;96204.94;;;22.43;61.48
71105;BME280;58760;48.716;8.962;2022-08-19T11:06:51;96205.53;;;22.46;61.23
71105;BME280;58760;48.716;8.962;2022-08-19T11:09:19;96202.63;;;22.52;60.51
71105;BME280;58760;48.716;8.962;2022-08-19T11:11:45;96194.75;;;22.51;60.12
71105;BME280;58760;48.716;8.962;2022-08-19T11:14:17;96206.50;;;22.61;60.42
71105;BME280;58760;48.716;8.962;2022-08-19T11:16:50;96194.44;;;22.69;59.02
71105;BME280;58760;48.716;8.962;2022-08-19T11:19:16;96185.00;;;22.76;59.11
71105;BME280;58760;48.716;8.962;2022-08-19T11:21:46;96193.63;;;22.73;58.95
71105;BME280;58760;48.716;8.962;2022-08-19T11:24:15;96189.34;;;22.77;58.67
71105;BME280;58760;48.716;8.962;2022-08-19T11:26:43;96187.88;;;22.65;60.17
71105;BME280;58760;48.716;8.962;2022-08-19T11:29:11;96186.44;;;22.57;59.82
71105;BME280;58760;48.716;8.962;2022-08-19T11:31:40;96189.09;;;22.52;59.42
71105;BME280;58760;48.716;8.962;2022-08-19T11:34:09;96195.78;;;22.45;59.75
71105;BME280;58760;48.716;8.962;2022-08-19T11:36:39;96196.34;;;22.47;60.28
71105;BME280;58760;48.716;8.962;2022-08-19T11:39:06;96200.97;;;22.51;59.97
71105;BME280;58760;48.716;8.962;2022-08-19T11:41:32;96206.38;;;22.51;60.31
71105;BME280;58760;48.716;8.962;2022-08-19T11:43:58;96201.31;;;22.60;60.37
71105;BME280;58760;48.716;8.962;2022-08-19T11:46:24;96194.59;;;22.62;59.43
71105;BME280;58760;48.716;8.962;2022-08-19T11:48:50;96202.44;;;22.64;59.20
71105;BME280;58760;48.716;8.962;2022-08-19T11:51:22;96194.59;;;22.62;59.51
71105;BME280;58760;48.716;8.962;2022-08-19T11:53:50;96200.53;;;22.59;60.03
71105;BME280;58760;48.716;8.962;2022-08-19T11:56:15;96197.31;;;22.62;59.58
71105;BME280;58760;48.716;8.962;2022-08-19T11:58:41;96192.44;;;22.64;60.10
71105;BME280;58760;48.716;8.962;2022-08-19T12:01:14;96199.03;;;22.68;59.92
71105;BME280;58760;48.716;8.962;2022-08-19T12:03:41;96197.56;;;22.61;59.69
71105;BME280;58760;48.716;8.962;2022-08-19T12:06:10;96192.63;;;22.53;60.15
71105;BME280;58760;48.716;8.962;2022-08-19T12:08:37;96191.31;;;22.60;60.30
71105;BME280;58760;48.716;8.962;2022-08-19T12:11:03;96188.94;;;22.64;59.30
71105;BME280;58760;48.716;8.962;2022-08-19T12:13:29;96189.34;;;22.77;58.04
71105;BME280;58760;48.716;8.962;2022-08-19T12:15:55;96179.69;;;22.86;58.30
71105;BME280;58760;48.716;8.962;2022-08-19T12:18:22;96175.78;;;23.09;56.39
71105;BME280;58760;48.716;8.962;2022-08-19T12:20:47;96170.81;;;23.33;54.97
71105;BME280;58760;48.716;8.962;2022-08-19T12:23:16;96177.44;;;23.52;54.46
71105;BME280;58760;48.716;8.962;2022-08-19T12:25:46;96158.59;;;23.77;53.22
71105;BME280;58760;48.716;8.962;2022-08-19T12:28:16;96163.59;;;24.11;52.53
71105;BME280;58760;48.716;8.962;2022-08-19T12:30:41;96163.97;;;24.34;51.51
71105;BME280;58760;48.716;8.962;2022-08-19T12:33:07;96165.59;;;24.25;50.63
71105;BME280;58760;48.716;8.962;2022-08-19T12:35:33;96158.25;;;24.31;51.60
71105;BME280;58760;48.716;8.962;2022-08-19T12:37:58;96163.72;;;24.41;51.03
71105;BME280;58760;48.716;8.962;2022-08-19T12:40:24;96163.44;;;24.53;50.60
71105;BME280;58760;48.716;8.962;2022-08-19T12:42:50;96164.22;;;24.33;50.74
71105;BME280;58760;48.716;8.962;2022-08-19T12:45:16;96168.03;;;24.37;50.31
71105;BME280;58760;48.716;8.962;2022-08-19T12:47:41;96169.13;;;24.41;49.82
71105;BME280;58760;48.716;8.962;2022-08-19T12:50:07;96164.28;;;24.78;48.83
71105;BME280;58760;48.716;8.962;2022-08-19T12:52:35;96177.28;;;25.47;47.44
71105;BME280;58760;48.716;8.962;2022-08-19T12:55:03;96165.88;;;25.50;47.17
71105;BME280;58760;48.716;8.962;2022-08-19T12:57:30;96174.28;;;25.48;46.72
71105;BME280;58760;48.716;8.962;2022-08-19T12:59:56;96160.75;;;25.28;47.20
71105;BME280;58760;48.716;8.962;2022-08-19T13:02:21;96170.81;;;25.13;47.68
71105;BME280;58760;48.716;8.962;2022-08-19T13:04:47;96169.72;;;25.09;48.21
71105;BME280;58760;48.716;8.962;2022-08-19T13:07:13;96172.44;;;24.98;48.75
71105;BME280;58760;48.716;8.962;2022-08-19T13:09:38;96166.75;;;25.05;46.34
71105;BME280;58760;48.716;8.962;2022-08-19T13:12:07;96178.97;;;24.92;46.77
71105;BME280;58760;48.716;8.962;2022-08-19T13:14:38;96179.50;;;24.94;47.61